createdAt,value
2023-05-08T00:00:13.241Z,19.30
2023-05-08T00:02:42.343Z,19.30
2023-05-08T00:05:09.272Z,19.20
2023-05-08T00:07:37.552Z,19.10
2023-05-08T00:10:08.417Z,19.00
2023-05-08T00:12:35.459Z,19.00
2023-05-08T00:15:03.439Z,18.90
2023-05-08T00:17:30.579Z,18.90
2023-05-08T00:19:57.304Z,18.90
2023-05-08T00:22:24.085Z,18.80
2023-05-08T00:24:50.813Z,18.90
2023-05-08T00:27:17.735Z,18.80
2023-05-08T00:29:44.488Z,18.80
2023-05-08T00:32:11.346Z,18.60
2023-05-08T00:34:38.187Z,18.80
2023-05-08T00:37:04.947Z,18.80
2023-05-08T00:39:32.076Z,18.90
2023-05-08T00:41:58.891Z,18.90
2023-05-08T00:44:25.696Z,18.90
2023-05-08T00:46:52.565Z,19.00
2023-05-08T00:49:19.432Z,19.10
2023-05-08T00:51:48.106Z,19.20
2023-05-08T00:54:15.744Z,19.20
2023-05-08T00:56:43.719Z,19.20
2023-05-08T00:59:14.209Z,19.20
2023-05-08T01:01:42.261Z,19.30
2023-05-08T01:04:09.313Z,19.20
2023-05-08T01:06:37.208Z,19.20
2023-05-08T01:09:04.299Z,19.10
2023-05-08T01:11:36.843Z,19.10
2023-05-08T01:14:44.544Z,19.10
2023-05-08T01:17:15.361Z,19.10
2023-05-08T01:20:10.155Z,19.10
2023-05-08T01:22:46.029Z,19.10
2023-05-08T01:25:40.511Z,19.10
2023-05-08T01:28:22.409Z,19.20
2023-05-08T01:31:12.208Z,19.00
2023-05-08T01:33:56.704Z,19.00
2023-05-08T01:36:27.216Z,19.20
2023-05-08T01:39:20.342Z,19.10
2023-05-08T01:41:57.236Z,19.00
2023-05-08T01:44:28.689Z,19.10
2023-05-08T01:46:55.973Z,19.10
2023-05-08T01:49:26.890Z,19.10
2023-05-08T01:52:03.055Z,19.00
2023-05-08T01:54:41.008Z,19.00
2023-05-08T01:57:10.855Z,18.90
2023-05-08T01:59:41.344Z,18.70
2023-05-08T02:02:10.352Z,18.70
2023-05-08T02:04:38.566Z,18.70
2023-05-08T02:07:05.989Z,18.80
2023-05-08T02:09:33.025Z,18.80
2023-05-08T02:12:01.162Z,18.50
2023-05-08T02:14:29.659Z,18.70
2023-05-08T02:16:58.433Z,18.50
2023-05-08T02:19:27.014Z,18.80
2023-05-08T02:21:55.374Z,18.80
2023-05-08T02:24:24.117Z,18.70
2023-05-08T02:26:54.392Z,18.80
2023-05-08T02:29:22.926Z,18.70
2023-05-08T02:31:51.211Z,18.70
2023-05-08T02:34:19.531Z,18.80
2023-05-08T02:36:46.905Z,18.70
2023-05-08T02:39:15.408Z,18.90
2023-05-08T02:41:42.444Z,18.40
2023-05-08T02:44:09.809Z,18.50
2023-05-08T02:46:36.569Z,18.40
2023-05-08T02:49:26.686Z,18.20
2023-05-08T02:52:20.609Z,18.00
2023-05-08T02:55:00.027Z,18.00
2023-05-08T02:57:51.199Z,18.10
2023-05-08T03:00:33.289Z,18.00
2023-05-08T03:03:11.954Z,18.00
2023-05-08T03:05:43.097Z,17.90
2023-05-08T03:08:18.400Z,18.10
2023-05-08T03:10:49.255Z,18.30
2023-05-08T03:13:18.610Z,18.20
2023-05-08T03:15:56.207Z,18.50
2023-05-08T03:18:46.405Z,18.40
2023-05-08T03:21:15.559Z,18.40
2023-05-08T03:23:43.449Z,18.40
2023-05-08T03:26:10.566Z,18.40
2023-05-08T03:28:39.160Z,18.40
2023-05-08T03:31:06.891Z,18.70
2023-05-08T03:33:37.106Z,18.50
2023-05-08T03:36:04.196Z,18.50
2023-05-08T03:38:31.260Z,18.50
2023-05-08T03:40:59.589Z,18.70
2023-05-08T03:43:26.955Z,18.40
2023-05-08T03:45:55.509Z,18.40
2023-05-08T03:48:23.248Z,18.40
2023-05-08T03:50:50.878Z,18.40
2023-05-08T03:53:17.790Z,18.60
2023-05-08T03:55:44.617Z,18.60
2023-05-08T03:58:14.108Z,18.40
2023-05-08T04:01:04.293Z,18.50
2023-05-08T04:03:46.323Z,18.50
2023-05-08T04:06:28.677Z,18.50
2023-05-08T04:09:02.743Z,18.40
2023-05-08T04:11:42.574Z,18.40
2023-05-08T04:14:15.798Z,18.50
2023-05-08T04:16:49.902Z,18.30
2023-05-08T04:19:23.398Z,18.40
2023-05-08T04:21:51.520Z,18.40
2023-05-08T04:24:20.779Z,18.50
2023-05-08T04:26:48.302Z,18.50
2023-05-08T04:29:15.715Z,18.50
2023-05-08T04:31:42.763Z,18.50
2023-05-08T04:34:09.876Z,18.50
2023-05-08T04:36:37.622Z,18.60
2023-05-08T04:39:05.158Z,18.60
2023-05-08T04:41:32.391Z,18.50
2023-05-08T04:43:59.316Z,18.50
2023-05-08T04:46:26.242Z,18.50
2023-05-08T04:48:53.025Z,18.60
2023-05-08T04:51:19.866Z,18.50
2023-05-08T04:53:46.620Z,18.40
2023-05-08T04:56:13.417Z,18.70
2023-05-08T04:58:40.302Z,18.40
2023-05-08T05:01:07.160Z,18.40
2023-05-08T05:03:34.034Z,18.40
2023-05-08T05:06:01.821Z,18.80
2023-05-08T05:08:29.063Z,18.60
2023-05-08T05:10:55.849Z,18.60
2023-05-08T05:13:22.738Z,18.60
2023-05-08T05:15:51.450Z,18.70
2023-05-08T05:18:18.475Z,18.50
2023-05-08T05:20:46.060Z,18.60
2023-05-08T05:23:12.908Z,18.50
2023-05-08T05:25:39.757Z,18.60
2023-05-08T05:28:06.550Z,18.70
2023-05-08T05:30:34.102Z,18.80
2023-05-08T05:33:00.875Z,18.80
2023-05-08T05:35:27.674Z,18.60
2023-05-08T05:37:54.444Z,18.50
2023-05-08T05:40:21.373Z,18.50
2023-05-08T05:42:51.459Z,18.30
2023-05-08T05:45:18.524Z,18.70
2023-05-08T05:47:50.139Z,18.50
2023-05-08T05:50:18.634Z,18.60
2023-05-08T05:52:45.675Z,18.60
2023-05-08T05:55:13.103Z,18.60
2023-05-08T05:57:40.547Z,18.50
2023-05-08T06:00:08.245Z,18.60
2023-05-08T06:02:36.733Z,18.70
2023-05-08T06:05:04.892Z,18.90
2023-05-08T06:07:31.633Z,18.90
2023-05-08T06:09:58.369Z,18.90
2023-05-08T06:12:25.559Z,19.00
2023-05-08T06:14:52.822Z,19.00
2023-05-08T06:17:19.673Z,19.10
2023-05-08T06:19:54.115Z,19.10
2023-05-08T06:22:24.390Z,19.20
2023-05-08T06:24:54.659Z,19.30
2023-05-08T06:27:22.598Z,19.30
2023-05-08T06:29:53.413Z,19.40
2023-05-08T06:32:21.087Z,19.50
2023-05-08T06:34:48.443Z,19.50
2023-05-08T06:37:15.476Z,19.50
2023-05-08T06:39:42.488Z,19.50
2023-05-08T06:42:09.628Z,19.50
2023-05-08T06:44:36.466Z,19.50
2023-05-08T06:47:03.560Z,19.60
2023-05-08T06:49:30.678Z,19.40
2023-05-08T06:51:58.141Z,19.50
2023-05-08T06:54:25.349Z,19.40
2023-05-08T06:56:54.261Z,19.40
2023-05-08T06:59:23.223Z,19.50
2023-05-08T07:01:50.605Z,19.50
2023-05-08T07:04:17.496Z,19.50
2023-05-08T07:06:44.340Z,19.60
2023-05-08T07:09:12.106Z,19.60
2023-05-08T07:11:39.004Z,19.60
2023-05-08T07:14:05.715Z,19.70
2023-05-08T07:16:32.681Z,19.60
2023-05-08T07:18:59.531Z,19.70
2023-05-08T07:21:26.567Z,19.80
2023-05-08T07:23:54.575Z,19.80
2023-05-08T07:26:22.467Z,19.80
2023-05-08T07:28:50.812Z,19.80
2023-05-08T07:31:17.683Z,19.90
2023-05-08T07:33:44.584Z,19.90
2023-05-08T07:36:11.646Z,20.00
2023-05-08T07:38:41.401Z,20.00
2023-05-08T07:41:08.375Z,20.00
2023-05-08T07:43:35.244Z,20.10
2023-05-08T07:46:02.021Z,20.20
2023-05-08T07:48:28.857Z,20.20
2023-05-08T07:50:55.672Z,20.20
2023-05-08T07:53:22.400Z,20.20
2023-05-08T07:55:49.113Z,20.10
2023-05-08T07:58:15.897Z,20.10
2023-05-08T08:00:42.762Z,20.10
2023-05-08T08:03:09.657Z,20.00
2023-05-08T08:05:36.466Z,20.10
2023-05-08T08:08:03.344Z,20.10
2023-05-08T08:10:31.477Z,20.10
2023-05-08T08:12:58.324Z,20.10
2023-05-08T08:15:25.110Z,20.10
2023-05-08T08:17:52.056Z,20.00
2023-05-08T08:20:19.105Z,20.00
2023-05-08T08:22:46.034Z,20.10
2023-05-08T08:25:13.179Z,20.30
2023-05-08T08:27:40.215Z,20.30
2023-05-08T08:30:16.911Z,20.30
2023-05-08T08:32:44.325Z,20.30
2023-05-08T08:35:11.581Z,20.40
2023-05-08T08:37:38.613Z,20.30
2023-05-08T08:40:06.120Z,20.40
2023-05-08T08:42:32.901Z,20.40
2023-05-08T08:45:00.576Z,20.50
2023-05-08T08:47:29.838Z,20.50
2023-05-08T08:50:00.572Z,20.50
2023-05-08T08:53:03.220Z,20.50
2023-05-08T08:55:31.212Z,20.60
2023-05-08T08:58:07.462Z,20.50
2023-05-08T09:00:37.265Z,20.50
2023-05-08T09:03:07.873Z,20.50
2023-05-08T09:05:35.788Z,20.50
2023-05-08T09:08:03.194Z,20.50
2023-05-08T09:10:30.118Z,20.60
2023-05-08T09:12:57.019Z,20.50
2023-05-08T09:15:23.737Z,20.50
2023-05-08T09:17:50.632Z,20.50
2023-05-08T09:20:17.526Z,20.50
2023-05-08T09:22:44.586Z,20.60
2023-05-08T09:25:11.661Z,20.60
2023-05-08T09:27:38.708Z,20.70
2023-05-08T09:30:14.199Z,20.70
2023-05-08T09:32:43.002Z,20.70
2023-05-08T09:35:11.644Z,20.70
2023-05-08T09:37:46.506Z,20.60
2023-05-08T09:40:21.731Z,20.50
2023-05-08T09:42:50.227Z,20.50
2023-05-08T09:45:28.300Z,20.60
2023-05-08T09:47:55.355Z,20.70
2023-05-08T09:50:22.241Z,20.60
2023-05-08T09:52:50.836Z,20.70
2023-05-08T09:55:18.339Z,20.70
2023-05-08T09:58:00.526Z,20.70
2023-05-08T10:00:29.417Z,20.80
2023-05-08T10:03:03.220Z,20.80
2023-05-08T10:05:32.631Z,20.80
2023-05-08T10:08:20.086Z,20.80
2023-05-08T10:10:47.404Z,20.80
2023-05-08T10:13:14.306Z,20.80
2023-05-08T10:15:45.028Z,20.80
2023-05-08T10:18:13.128Z,20.90
2023-05-08T10:20:41.876Z,20.80
2023-05-08T10:23:11.453Z,20.80
2023-05-08T10:25:45.399Z,20.80
2023-05-08T10:28:32.823Z,20.80
2023-05-08T10:31:03.969Z,20.80
2023-05-08T10:33:34.157Z,20.80
2023-05-08T10:36:01.085Z,20.80
2023-05-08T10:38:31.057Z,20.80
2023-05-08T10:41:01.403Z,20.80
2023-05-08T10:43:30.390Z,20.90
2023-05-08T10:45:58.754Z,20.90
2023-05-08T10:48:28.344Z,20.90
2023-05-08T10:51:25.932Z,20.90
2023-05-08T10:54:02.192Z,20.90
2023-05-08T10:56:29.408Z,20.90
2023-05-08T10:58:59.415Z,20.90
2023-05-08T11:01:26.885Z,20.90
2023-05-08T11:03:55.857Z,21.00
2023-05-08T11:06:49.293Z,21.00
2023-05-08T11:09:22.075Z,21.10
2023-05-08T11:12:01.880Z,21.00
2023-05-08T11:14:29.596Z,21.00
2023-05-08T11:17:02.058Z,21.10
2023-05-08T11:19:29.079Z,21.10
2023-05-08T11:22:13.922Z,21.20
2023-05-08T11:25:02.375Z,21.30
2023-05-08T11:28:06.759Z,21.40
2023-05-08T11:30:34.792Z,21.50
2023-05-08T11:33:05.096Z,21.50
2023-05-08T11:35:55.469Z,21.50
2023-05-08T11:38:28.509Z,21.50
2023-05-08T11:40:59.445Z,21.60
2023-05-08T11:43:27.199Z,21.60
2023-05-08T11:45:55.031Z,21.60
2023-05-08T11:48:21.735Z,21.70
2023-05-08T11:50:49.618Z,21.70
2023-05-08T11:53:16.568Z,21.80
2023-05-08T11:55:43.912Z,21.70
2023-05-08T11:58:14.393Z,21.80
2023-05-08T12:00:45.409Z,21.70
2023-05-08T12:03:13.862Z,21.90
2023-05-08T12:05:41.027Z,21.90
2023-05-08T12:08:09.056Z,22.00
2023-05-08T12:10:53.668Z,22.00
2023-05-08T12:13:21.560Z,22.00
2023-05-08T12:15:57.246Z,21.90
2023-05-08T12:18:25.290Z,22.10
2023-05-08T12:20:53.420Z,22.20
2023-05-08T12:23:20.956Z,22.20
2023-05-08T12:25:47.787Z,22.20
2023-05-08T12:28:15.668Z,22.20
2023-05-08T12:30:42.593Z,22.10
2023-05-08T12:33:11.100Z,22.20
2023-05-08T12:35:39.343Z,22.30
2023-05-08T12:38:08.152Z,22.40
2023-05-08T12:40:42.901Z,22.50
2023-05-08T12:43:11.411Z,22.50
2023-05-08T12:45:40.576Z,22.50
2023-05-08T12:48:12.598Z,22.50
2023-05-08T12:50:44.896Z,22.50
2023-05-08T12:53:14.318Z,22.50
2023-05-08T12:55:53.469Z,22.60
2023-05-08T12:58:23.995Z,22.60
2023-05-08T13:00:52.370Z,22.60
2023-05-08T13:03:28.052Z,22.60
2023-05-08T13:05:57.836Z,22.60
2023-05-08T13:08:55.194Z,22.60
2023-05-08T13:11:33.236Z,22.70
2023-05-08T13:14:00.453Z,22.70
2023-05-08T13:16:27.399Z,22.70
2023-05-08T13:18:54.169Z,22.70
2023-05-08T13:21:21.123Z,22.70
2023-05-08T13:23:47.901Z,22.60
2023-05-08T13:26:14.614Z,22.60
2023-05-08T13:28:41.373Z,22.70
2023-05-08T13:31:08.079Z,22.80
2023-05-08T13:33:35.249Z,22.90
2023-05-08T13:36:02.088Z,23.00
2023-05-08T13:38:28.908Z,23.00
2023-05-08T13:40:55.684Z,22.90
2023-05-08T13:43:22.381Z,22.90
2023-05-08T13:45:49.208Z,23.00
2023-05-08T13:48:16.000Z,23.00
2023-05-08T13:50:43.156Z,23.00
2023-05-08T13:53:09.934Z,23.00
2023-05-08T13:55:37.029Z,23.00
2023-05-08T13:58:03.816Z,23.00
2023-05-08T14:00:30.624Z,23.00
2023-05-08T14:02:57.478Z,23.00
2023-05-08T14:05:24.293Z,23.10
2023-05-08T14:07:51.062Z,23.10
2023-05-08T14:10:17.811Z,23.10
2023-05-08T14:12:44.793Z,23.10
2023-05-08T14:15:12.254Z,23.10
2023-05-08T14:17:39.468Z,23.20
2023-05-08T14:20:06.841Z,23.20
2023-05-08T14:22:33.613Z,23.20
2023-05-08T14:25:00.430Z,23.20
2023-05-08T14:27:27.323Z,23.20
2023-05-08T14:29:55.672Z,23.20
2023-05-08T14:32:22.528Z,23.10
2023-05-08T14:34:49.296Z,23.10
2023-05-08T14:37:17.617Z,23.10
2023-05-08T14:39:45.534Z,23.10
2023-05-08T14:44:42.051Z,23.20
2023-05-08T14:47:09.407Z,23.20
2023-05-08T14:49:38.422Z,23.20
2023-05-08T14:52:06.713Z,23.20
2023-05-08T14:54:33.806Z,23.30
2023-05-08T14:57:00.798Z,23.20
2023-05-08T14:59:27.652Z,23.10
2023-05-08T15:01:54.508Z,23.10
2023-05-08T15:04:21.500Z,23.20
2023-05-08T15:06:48.475Z,23.30
2023-05-08T15:09:16.489Z,23.30
2023-05-08T15:11:43.632Z,23.40
2023-05-08T15:14:10.492Z,23.50
2023-05-08T15:16:37.401Z,23.50
2023-05-08T15:19:04.286Z,23.50
2023-05-08T15:21:31.180Z,23.40
2023-05-08T15:23:57.996Z,23.40
2023-05-08T15:26:24.831Z,23.40
2023-05-08T15:28:51.748Z,23.50
2023-05-08T15:31:18.775Z,23.40
2023-05-08T15:33:46.048Z,23.40
2023-05-08T15:36:13.672Z,23.40
2023-05-08T15:38:41.366Z,23.40
2023-05-08T15:41:14.768Z,23.40
2023-05-08T15:43:42.961Z,23.30
2023-05-08T15:46:09.980Z,23.30
2023-05-08T15:48:36.912Z,23.30
2023-05-08T15:51:03.751Z,23.30
2023-05-08T15:53:30.577Z,23.20
2023-05-08T15:55:57.555Z,23.30
2023-05-08T15:58:24.558Z,23.30
2023-05-08T16:00:51.753Z,23.30
2023-05-08T16:03:19.083Z,23.40
2023-05-08T16:05:46.139Z,23.40
2023-05-08T16:08:13.730Z,23.40
2023-05-08T16:10:41.383Z,23.40
2023-05-08T16:13:08.765Z,23.50
2023-05-08T16:15:35.654Z,23.50
2023-05-08T16:18:02.993Z,23.60
2023-05-08T16:20:30.517Z,23.70
2023-05-08T16:22:58.465Z,23.70
2023-05-08T16:25:25.579Z,23.60
2023-05-08T16:27:52.655Z,23.60
2023-05-08T16:30:19.573Z,23.60
2023-05-08T16:32:46.605Z,23.50
2023-05-08T16:35:14.203Z,23.50
2023-05-08T16:37:41.392Z,23.60
2023-05-08T16:40:08.812Z,23.70
2023-05-08T16:42:37.000Z,23.70
2023-05-08T16:45:08.139Z,23.80
2023-05-08T16:47:36.046Z,23.70
2023-05-08T16:50:04.060Z,23.70
2023-05-08T16:52:32.683Z,23.70
2023-05-08T16:54:59.480Z,23.70
2023-05-08T16:57:27.512Z,23.80
2023-05-08T16:59:54.374Z,23.80
2023-05-08T17:02:21.975Z,23.80
2023-05-08T17:04:49.762Z,23.80
2023-05-08T17:07:17.523Z,23.80
2023-05-08T17:09:44.864Z,23.70
2023-05-08T17:12:11.785Z,23.60
2023-05-08T17:14:40.294Z,23.50
2023-05-08T17:17:07.400Z,23.50
2023-05-08T17:19:34.342Z,23.50
2023-05-08T17:22:01.399Z,23.50
2023-05-08T17:24:30.402Z,23.50
2023-05-08T17:26:57.336Z,23.40
2023-05-08T17:29:24.539Z,23.40
2023-05-08T17:31:51.380Z,23.50
2023-05-08T17:34:18.160Z,23.50
2023-05-08T17:36:44.951Z,23.50
2023-05-08T17:39:12.518Z,23.40
2023-05-08T17:41:39.337Z,23.40
2023-05-08T17:44:07.027Z,23.40
2023-05-08T17:46:33.817Z,23.30
2023-05-08T17:49:00.669Z,23.30
2023-05-08T17:51:27.459Z,23.30
2023-05-08T17:53:56.045Z,23.30
2023-05-08T17:56:23.382Z,23.30
2023-05-08T17:58:52.371Z,23.20
2023-05-08T18:01:20.350Z,23.20
2023-05-08T18:03:50.267Z,23.20
2023-05-08T18:06:18.303Z,23.20
2023-05-08T18:08:45.939Z,23.10
2023-05-08T18:11:17.205Z,23.10
2023-05-08T18:13:43.977Z,23.10
2023-05-08T18:16:13.243Z,23.10
2023-05-08T18:18:40.168Z,23.00
2023-05-08T18:21:07.091Z,23.00
2023-05-08T18:23:34.159Z,23.00
2023-05-08T18:26:01.054Z,22.90
2023-05-08T18:28:28.250Z,22.90
2023-05-08T18:30:55.436Z,22.90
2023-05-08T18:33:22.381Z,22.90
2023-05-08T18:35:49.326Z,22.90
2023-05-08T18:38:17.586Z,22.90
2023-05-08T18:40:45.484Z,22.80
2023-05-08T18:43:12.318Z,22.80
2023-05-08T18:45:40.302Z,22.80
2023-05-08T18:48:10.767Z,22.70
2023-05-08T18:50:37.794Z,22.80
2023-05-08T18:53:04.683Z,22.80
2023-05-08T18:55:31.464Z,22.70
2023-05-08T18:57:58.391Z,22.70
2023-05-08T19:00:25.415Z,22.70
2023-05-08T19:02:52.346Z,22.70
2023-05-08T19:05:19.258Z,22.60
2023-05-08T19:07:46.119Z,22.60
2023-05-08T19:10:13.446Z,22.60
2023-05-08T19:12:40.622Z,22.60
2023-05-08T19:15:09.370Z,22.50
2023-05-08T19:17:37.044Z,22.50
2023-05-08T19:20:04.576Z,22.50
2023-05-08T19:22:33.774Z,22.50
2023-05-08T19:25:02.278Z,22.40
2023-05-08T19:27:29.212Z,22.40
2023-05-08T19:29:56.305Z,22.40
2023-05-08T19:32:23.267Z,22.40
2023-05-08T19:34:50.186Z,22.30
2023-05-08T19:37:16.993Z,22.30
2023-05-08T19:39:43.910Z,22.30
2023-05-08T19:42:13.719Z,22.20
2023-05-08T19:44:40.645Z,22.20
2023-05-08T19:47:07.667Z,22.20
2023-05-08T19:49:34.437Z,22.20
2023-05-08T19:52:01.218Z,22.20
2023-05-08T19:54:29.268Z,22.10
2023-05-08T19:56:56.197Z,22.00
2023-05-08T19:59:23.047Z,22.00
2023-05-08T20:01:53.704Z,22.00
2023-05-08T20:04:20.764Z,22.00
2023-05-08T20:06:47.575Z,22.00
2023-05-08T20:09:14.282Z,21.90
2023-05-08T20:11:41.052Z,21.90
2023-05-08T20:14:07.772Z,21.90
2023-05-08T20:16:34.578Z,21.90
2023-05-08T20:19:01.767Z,22.00
2023-05-08T20:21:33.846Z,22.00
2023-05-08T20:24:01.171Z,22.00
2023-05-08T20:26:29.426Z,21.90
2023-05-08T20:28:56.907Z,21.80
2023-05-08T20:31:25.765Z,21.70
2023-05-08T20:33:52.912Z,21.70
2023-05-08T20:36:20.333Z,21.70
2023-05-08T20:38:47.240Z,21.70
2023-05-08T20:41:14.091Z,21.70
2023-05-08T20:43:41.019Z,21.70
2023-05-08T20:46:08.228Z,21.70
2023-05-08T20:48:35.237Z,21.70
2023-05-08T20:51:04.568Z,21.60
2023-05-08T20:53:32.125Z,21.60
2023-05-08T20:56:03.485Z,21.60
2023-05-08T20:58:30.462Z,21.60
2023-05-08T21:00:57.646Z,21.60
2023-05-08T21:03:24.528Z,21.60
2023-05-08T21:05:51.845Z,21.60
2023-05-08T21:08:23.030Z,21.60
2023-05-08T21:10:50.689Z,21.60
2023-05-08T21:13:17.875Z,21.60
2023-05-08T21:15:44.959Z,21.50
2023-05-08T21:18:12.003Z,21.50
2023-05-08T21:20:38.997Z,21.50
2023-05-08T21:23:05.825Z,21.50
2023-05-08T21:25:32.734Z,21.40
2023-05-08T21:27:59.561Z,21.50
2023-05-08T21:30:26.333Z,21.40
2023-05-08T21:32:53.170Z,21.40
2023-05-08T21:35:20.210Z,21.30
2023-05-08T21:37:46.995Z,21.40
2023-05-08T21:40:13.838Z,21.30
2023-05-08T21:42:40.788Z,21.30
2023-05-08T21:45:07.951Z,21.30
2023-05-08T21:47:34.757Z,21.30
2023-05-08T21:50:01.562Z,21.30
2023-05-08T21:52:28.354Z,21.20
2023-05-08T21:54:55.108Z,21.20
2023-05-08T21:57:21.901Z,21.20
2023-05-08T21:59:51.746Z,21.20
2023-05-08T22:02:19.981Z,21.10
2023-05-08T22:04:46.816Z,21.10
2023-05-08T22:07:13.699Z,21.10
2023-05-08T22:09:40.576Z,21.10
2023-05-08T22:12:08.354Z,21.10
2023-05-08T22:14:35.207Z,21.10
2023-05-08T22:17:02.125Z,21.10
2023-05-08T22:19:29.081Z,21.00
2023-05-08T22:21:58.882Z,21.00
2023-05-08T22:24:26.342Z,21.00
2023-05-08T22:26:53.126Z,21.00
2023-05-08T22:29:19.840Z,21.00
2023-05-08T22:31:47.822Z,20.90
2023-05-08T22:34:15.028Z,20.90
2023-05-08T22:36:41.959Z,20.90
2023-05-08T22:39:13.099Z,20.90
2023-05-08T22:41:40.035Z,20.80
2023-05-08T22:44:07.296Z,20.90
2023-05-08T22:46:35.352Z,20.90
2023-05-08T22:49:02.737Z,20.90
2023-05-08T22:51:30.411Z,20.80
2023-05-08T22:53:57.218Z,20.80
2023-05-08T22:56:24.050Z,20.70
2023-05-08T22:58:50.849Z,20.70
2023-05-08T23:01:17.866Z,20.70
2023-05-08T23:03:44.655Z,20.80
2023-05-08T23:06:11.432Z,20.70
2023-05-08T23:08:38.180Z,20.70
2023-05-08T23:11:05.321Z,20.70
2023-05-08T23:13:33.454Z,20.70
2023-05-08T23:16:00.375Z,20.70
2023-05-08T23:18:27.188Z,20.60
2023-05-08T23:20:53.952Z,20.50
2023-05-08T23:23:20.789Z,20.50
2023-05-08T23:25:47.555Z,20.50
2023-05-08T23:28:14.358Z,20.50
2023-05-08T23:30:41.128Z,20.50
2023-05-08T23:33:08.563Z,20.50
2023-05-08T23:35:35.352Z,20.50
2023-05-08T23:38:02.109Z,20.50
2023-05-08T23:40:28.949Z,20.50
2023-05-08T23:42:56.119Z,20.50
2023-05-08T23:45:22.872Z,20.50
2023-05-08T23:47:49.670Z,20.40
2023-05-08T23:50:16.588Z,20.50
2023-05-08T23:52:43.376Z,20.50
2023-05-08T23:55:10.414Z,20.50
2023-05-08T23:57:37.190Z,20.40
